Time;durP1;ratioP1;P1;durP2;ratioP2;P2;SDS_P1;SDS_P2;PMS_P1;PMS_P2;Temp;Humidity;BMP_temperature;BMP_pressure;BME280_temperature;BME280_humidity;BME280_pressure;Samples;Min_cycle;Max_cycle;Signal;HPM_P1;HPM_P2
2021/12/22 00:00:55;;;;;;;12.50;9.37;;;0.50;68.00;;;3.39;54.23;102683.88;4860618;29;20204;-63
2021/12/22 00:03:23;;;;;;;16.47;10.90;;;0.50;67.80;;;3.29;54.06;102683.53;4861773;29;20227;-63
2021/12/22 00:05:52;;;;;;;15.63;10.30;;;0.50;67.60;;;3.21;55.13;102677.88;4862095;29;20201;-63
2021/12/22 00:08:20;;;;;;;15.60;11.07;;;0.40;67.60;;;3.23;55.34;102677.81;4861717;29;20202;-65
2021/12/22 00:10:49;;;;;;;14.20;10.00;;;0.40;68.30;;;3.26;55.15;102685.44;4861683;29;20232;-62
2021/12/22 00:13:16;;;;;;;28.53;10.20;;;0.40;68.30;;;3.22;54.92;102678.72;4861388;29;20216;-61
2021/12/22 00:15:45;;;;;;;20.23;9.80;;;0.40;68.00;;;3.17;55.19;102680.69;4861486;29;20307;-63
2021/12/22 00:18:13;;;;;;;13.93;9.47;;;0.40;68.20;;;3.05;54.79;102682.19;4860429;29;20202;-63
2021/12/22 00:20:40;;;;;;;23.57;10.53;;;0.40;67.70;;;2.98;54.98;102679.97;4861875;29;20202;-62
2021/12/22 00:23:08;;;;;;;17.10;10.47;;;0.30;67.60;;;2.99;55.72;102681.66;4861441;29;20227;-62
2021/12/22 00:25:35;;;;;;;14.70;10.20;;;0.30;68.20;;;3.05;55.45;102673.53;4861689;29;20271;-63
2021/12/22 00:28:04;;;;;;;15.40;9.97;;;0.30;68.70;;;3.14;55.83;102671.28;4861441;29;20206;-64
2021/12/22 00:30:31;;;;;;;21.50;12.10;;;0.20;68.90;;;3.24;55.52;102682.91;4861454;29;20279;-62
2021/12/22 00:33:04;;;;;;;21.80;10.23;;;0.30;69.20;;;3.33;55.43;102686.78;4860878;29;20217;-65
2021/12/22 00:35:39;;;;;;;14.07;10.63;;;0.30;68.90;;;3.42;55.05;102686.34;4860469;29;20203;-64
2021/12/22 00:38:08;;;;;;;13.17;9.73;;;0.40;69.30;;;3.53;55.26;102689.19;4860180;29;20209;-65
2021/12/22 00:40:36;;;;;;;15.23;10.10;;;0.50;69.40;;;3.65;55.36;102688.56;4861008;29;20234;-63
2021/12/22 00:43:04;;;;;;;16.70;10.93;;;0.50;69.40;;;3.77;54.54;102682.69;4842761;29;20222;-63
2021/12/22 00:45:34;;;;;;;14.37;9.83;;;0.70;69.20;;;3.84;54.22;102676.22;4843058;29;20217;-62
2021/12/22 00:48:06;;;;;;;13.90;9.77;;;0.70;68.70;;;3.92;54.36;102686.22;4849128;29;20205;-64
2021/12/22 00:50:37;;;;;;;14.40;10.67;;;0.80;68.70;;;4.03;54.74;102687.31;4861155;29;20282;-63
2021/12/22 00:53:05;;;;;;;15.30;10.17;;;0.90;68.60;;;4.13;53.53;102679.00;4860760;29;20294;-63
2021/12/22 00:55:33;;;;;;;11.93;9.20;;;1.00;68.20;;;4.23;53.89;102680.16;4860110;29;20218;-65
2021/12/22 00:58:00;;;;;;;14.83;10.13;;;1.00;67.80;;;4.26;52.91;102674.75;4860931;29;20197;-64
2021/12/22 01:00:28;;;;;;;16.37;9.93;;;1.10;67.20;;;4.17;52.70;102686.56;4860098;29;20303;-62
2021/12/22 01:02:56;;;;;;;18.40;11.33;;;1.10;66.20;;;4.07;51.82;102683.63;4860987;29;20269;-64
2021/12/22 01:05:26;;;;;;;15.63;9.50;;;1.10;65.60;;;3.94;52.26;102685.22;4861131;29;20233;-63
2021/12/22 01:07:53;;;;;;;14.00;8.97;;;1.00;65.40;;;3.81;53.32;102683.34;4860729;29;20195;-63
2021/12/22 01:10:26;;;;;;;12.57;9.23;;;1.00;65.40;;;3.67;52.63;102691.06;4861005;29;20606;-62
2021/12/22 01:12:57;;;;;;;12.90;8.80;;;0.90;65.40;;;3.58;52.95;102686.34;4860691;29;20576;-64
2021/12/22 01:15:28;;;;;;;18.60;10.03;;;0.80;65.50;;;3.51;53.19;102683.25;4860868;29;20201;-64
2021/12/22 01:18:03;;;;;;;16.40;10.47;;;0.70;65.80;;;3.45;53.78;102687.94;4860747;29;20197;-64
2021/12/22 01:20:39;;;;;;;23.87;12.97;;;0.60;66.20;;;3.47;54.25;102686.91;4861017;29;20195;-64
2021/12/22 01:23:07;;;;;;;17.13;10.77;;;0.50;66.50;;;3.52;53.89;102691.91;4859167;29;20670;-63
2021/12/22 01:25:42;;;;;;;15.37;10.53;;;0.50;67.30;;;3.58;54.44;102688.97;4860939;29;20208;-64
2021/12/22 01:28:11;;;;;;;21.83;11.87;;;0.50;67.70;;;3.68;53.72;102688.41;4860601;29;20205;-62
2021/12/22 01:30:43;;;;;;;16.83;10.57;;;0.60;67.70;;;3.74;53.65;102702.81;4860417;29;20248;-62
2021/12/22 01:33:12;;;;;;;17.30;10.73;;;0.60;67.50;;;3.64;53.32;102692.06;4860510;29;20753;-64
2021/12/22 01:35:43;;;;;;;18.87;10.37;;;0.60;67.00;;;3.50;53.56;102689.34;4860900;29;20194;-64
2021/12/22 01:38:10;;;;;;;17.40;12.13;;;0.60;66.70;;;3.44;54.15;102694.91;4860968;29;20206;-63
2021/12/22 01:40:42;;;;;;;15.90;11.43;;;0.60;67.10;;;3.47;54.16;102686.09;4860599;29;20226;-62
2021/12/22 01:43:14;;;;;;;15.10;10.53;;;0.60;67.80;;;3.53;54.02;102684.00;4859450;29;20233;-64
2021/12/22 01:46:09;;;;;;;16.30;11.50;;;0.60;67.80;;;3.65;54.21;102683.34;4860836;29;20201;-65
2021/12/22 01:51:56;;;;;;;18.70;11.87;;;0.70;68.20;;;3.70;53.55;102693.50;4877058;29;20303;-62
2021/12/22 01:54:33;;;;;;;18.73;11.57;;;0.80;66.70;;;3.63;53.61;102681.75;4846425;29;20244;-63
2021/12/22 01:57:09;;;;;;;18.87;11.00;;;0.80;66.50;;;3.53;53.10;102689.19;4843521;29;20274;-63
2021/12/22 01:59:38;;;;;;;16.07;10.63;;;0.70;66.10;;;3.32;53.38;102691.19;4860448;29;20198;-63
2021/12/22 02:02:08;;;;;;;17.50;11.20;;;0.60;65.80;;;3.15;54.12;102677.34;4860561;29;20598;-63
2021/12/22 02:04:37;;;;;;;14.37;11.17;;;0.50;66.30;;;3.13;54.52;102681.78;4860234;29;20545;-63
2021/12/22 02:07:08;;;;;;;18.83;11.63;;;0.50;67.00;;;3.13;54.80;102684.38;4860168;29;20203;-60
2021/12/22 02:09:56;;;;;;;15.30;10.77;;;0.40;67.20;;;3.09;54.75;102688.88;4860413;29;20737;-62
2021/12/22 02:12:26;;;;;;;13.97;10.17;;;0.40;67.20;;;3.09;54.61;102695.88;4860056;29;20218;-65
2021/12/22 02:14:53;;;;;;;25.90;12.67;;;0.30;67.00;;;3.00;54.67;102691.13;4863031;29;20679;-64
2021/12/22 02:17:20;;;;;;;25.60;11.07;;;0.30;66.90;;;2.93;55.00;102693.19;4864005;29;20201;-62
2021/12/22 02:19:49;;;;;;;15.47;9.73;;;0.20;67.10;;;2.91;54.44;102705.44;4863425;29;20202;-62
2021/12/22 02:22:18;;;;;;;13.80;9.43;;;0.20;67.30;;;2.83;54.80;102701.53;4863866;29;20284;-63
2021/12/22 02:24:52;;;;;;;16.00;10.80;;;0.10;67.20;;;2.74;55.27;102700.22;4862625;29;20195;-63
2021/12/22 02:27:31;;;;;;;14.10;9.07;;;0.10;67.40;;;2.77;55.10;102688.84;4864051;29;20289;-64
2021/12/22 02:30:02;;;;;;;16.13;9.97;;;0.00;67.50;;;2.77;55.10;102691.44;4863490;29;20709;-63
2021/12/22 02:35:04;;;;;;;17.67;11.90;;;0.00;69.00;;;2.93;55.14;102697.53;4863863;29;20228;-62
2021/12/22 02:37:41;;;;;;;15.73;10.90;;;0.00;69.10;;;2.96;55.12;102697.41;4864410;29;20197;-62
2021/12/22 02:40:14;;;;;;;16.57;10.40;;;0.10;68.90;;;2.94;54.86;102691.44;4863084;29;20188;-62
2021/12/22 02:42:45;;;;;;;14.90;10.83;;;0.10;68.50;;;2.92;55.08;102695.88;4863580;29;20689;-64
2021/12/22 02:45:17;;;;;;;17.77;10.13;;;0.10;68.20;;;2.91;55.02;102689.00;4863966;29;20203;-64
2021/12/22 02:47:44;;;;;;;15.40;10.63;;;0.00;68.40;;;2.90;55.44;102687.31;4863841;29;20221;-64
2021/12/22 02:50:16;;;;;;;12.50;9.10;;;0.00;68.60;;;2.91;55.33;102689.00;4862766;29;20249;-64
2021/12/22 02:55:28;;;;;;;15.50;10.37;;;0.00;69.00;;;3.00;55.52;102678.13;4863861;29;20207;-63
2021/12/22 02:57:59;;;;;;;21.43;11.47;;;0.00;69.50;;;3.02;55.38;102671.09;4865279;29;20702;-62
2021/12/22 03:00:47;;;;;;;13.00;9.93;;;0.10;69.20;;;3.03;55.35;102673.63;4863867;29;20197;-63
2021/12/22 03:03:32;;;;;;;27.23;10.80;;;0.10;69.20;;;3.09;55.11;102672.47;4863632;29;20277;-61
2021/12/22 03:06:06;;;;;;;19.03;9.97;;;0.20;69.60;;;3.14;55.28;102675.66;4865070;29;20219;-63
2021/12/22 03:08:34;;;;;;;13.53;9.07;;;0.20;69.00;;;3.11;55.11;102668.03;4864828;29;20218;-62
2021/12/22 03:11:01;;;;;;;13.80;9.50;;;0.20;68.70;;;3.11;55.22;102678.44;4865559;29;20223;-63
2021/12/22 03:13:31;;;;;;;16.83;10.07;;;0.20;68.60;;;3.14;54.65;102673.03;4866147;29;20227;-64
2021/12/22 03:15:58;;;;;;;14.10;9.63;;;0.20;68.60;;;3.13;55.38;102666.19;4865141;29;20212;-64
2021/12/22 03:18:26;;;;;;;13.03;9.50;;;0.20;68.50;;;3.14;54.90;102670.44;4864840;29;20203;-62
2021/12/22 03:21:02;;;;;;;19.03;10.20;;;0.20;68.70;;;3.14;55.35;102684.31;4863522;29;20671;-62
2021/12/22 03:23:31;;;;;;;16.73;8.50;;;0.20;68.90;;;3.08;54.41;102681.19;4863088;29;20218;-63
2021/12/22 03:25:59;;;;;;;12.33;9.40;;;0.20;68.30;;;3.01;54.67;102674.63;4862206;29;20274;-64
2021/12/22 03:28:26;;;;;;;18.77;10.30;;;0.10;68.00;;;2.98;54.99;102677.34;4862852;29;20328;-62
2021/12/22 03:30:55;;;;;;;17.43;9.43;;;0.10;68.30;;;2.96;55.22;102677.44;4862577;29;20613;-62
2021/12/22 03:33:23;;;;;;;13.60;8.67;;;0.10;68.50;;;2.91;55.20;102678.59;4862579;29;20226;-61
2021/12/22 03:35:53;;;;;;;11.90;8.50;;;0.00;68.60;;;2.89;55.50;102680.44;4861271;29;20209;-65
2021/12/22 03:38:21;;;;;;;12.83;8.97;;;0.00;68.60;;;2.91;55.39;102671.63;4862567;29;20203;-62
2021/12/22 03:40:49;;;;;;;14.87;9.37;;;0.00;68.80;;;2.95;55.72;102661.94;4862541;29;20202;-63
2021/12/22 03:43:17;;;;;;;15.47;10.50;;;0.00;70.00;;;3.03;55.47;102657.16;4862175;29;20214;-65
2021/12/22 03:45:44;;;;;;;20.90;10.97;;;0.00;69.40;;;3.15;55.50;102657.38;4862022;29;20663;-65
2021/12/22 03:48:16;;;;;;;16.13;11.10;;;0.10;69.90;;;3.22;55.00;102663.09;4862484;29;20609;-60
2021/12/22 03:50:44;;;;;;;18.03;10.23;;;0.10;69.50;;;3.27;55.26;102663.72;4861976;29;20412;-65
2021/12/22 03:53:12;;;;;;;16.13;10.50;;;0.20;69.60;;;3.34;55.21;102659.84;4861752;29;20224;-63
2021/12/22 03:55:39;;;;;;;15.70;10.07;;;0.20;69.40;;;3.43;54.96;102664.56;4861846;29;20204;-65
2021/12/22 03:58:08;;;;;;;12.43;8.70;;;0.30;69.40;;;3.46;54.61;102655.78;4862017;29;20189;-62
2021/12/22 04:00:37;;;;;;;16.97;10.43;;;0.30;68.80;;;3.48;54.68;102659.97;4861865;29;20197;-63
2021/12/22 04:03:05;;;;;;;13.77;9.53;;;0.40;68.80;;;3.47;54.26;102653.06;4861703;29;20403;-64
2021/12/22 04:05:32;;;;;;;12.20;8.70;;;0.40;68.50;;;3.48;54.52;102659.97;4862212;29;20205;-63
2021/12/22 04:08:00;;;;;;;17.27;10.57;;;0.40;68.50;;;3.51;54.06;102662.41;4862068;29;20223;-64
2021/12/22 04:10:27;;;;;;;15.07;10.23;;;0.40;68.50;;;3.53;54.39;102668.38;4861546;29;20241;-65
2021/12/22 04:12:56;;;;;;;15.73;10.47;;;0.50;68.50;;;3.58;54.78;102658.56;4861484;29;20328;-63
2021/12/22 04:15:27;;;;;;;16.13;10.77;;;0.50;69.10;;;3.69;54.72;102657.97;4861341;29;20290;-63
2021/12/22 04:17:55;;;;;;;13.63;10.33;;;0.60;69.20;;;3.74;53.38;102662.03;4861769;29;20212;-63
2021/12/22 04:20:23;;;;;;;13.20;9.20;;;0.60;68.30;;;3.73;53.90;102664.72;4861803;29;20201;-62
2021/12/22 04:22:51;;;;;;;13.73;9.00;;;0.70;67.60;;;3.65;53.64;102662.53;4862179;29;20213;-63
2021/12/22 04:25:21;;;;;;;11.03;8.53;;;0.70;67.20;;;3.54;53.80;102658.81;4861324;29;20197;-62
2021/12/22 04:27:51;;;;;;;14.33;9.17;;;0.60;67.00;;;3.45;53.68;102657.53;4861487;29;20275;-64
2021/12/22 04:30:20;;;;;;;21.20;10.90;;;0.50;67.00;;;3.38;53.61;102653.56;4861509;29;20351;-64
2021/12/22 04:32:49;;;;;;;16.70;9.83;;;0.50;66.90;;;3.28;54.02;102655.81;4861662;29;20695;-62
2021/12/22 04:35:17;;;;;;;14.10;10.60;;;0.40;66.90;;;3.20;54.06;102654.53;4861021;29;20204;-63
2021/12/22 04:37:44;;;;;;;18.33;9.77;;;0.30;67.40;;;3.22;54.52;102663.09;4861171;29;20210;-63
2021/12/22 04:40:13;;;;;;;14.67;8.60;;;0.30;68.00;;;3.26;54.24;102656.81;4860804;29;20578;-62
2021/12/22 04:42:41;;;;;;;13.43;9.87;;;0.30;68.00;;;3.32;54.78;102656.50;4859774;29;20230;-63
2021/12/22 04:45:09;;;;;;;15.13;9.67;;;0.30;68.30;;;3.42;54.21;102655.09;4861234;29;20194;-60
2021/12/22 04:47:37;;;;;;;15.67;10.53;;;0.40;68.50;;;3.46;54.01;102656.63;4861318;29;20201;-64
2021/12/22 04:50:14;;;;;;;17.67;9.90;;;0.40;67.70;;;3.38;53.88;102648.38;4861103;29;20213;-64
2021/12/22 04:53:08;;;;;;;14.43;9.40;;;0.40;67.10;;;3.28;53.79;102648.00;4860980;29;20221;-63
2021/12/22 04:55:33;;;;;;;13.00;9.20;;;0.40;66.90;;;3.15;53.44;102651.34;4861067;29;20275;-64
2021/12/22 04:58:01;;;;;;;25.33;11.27;;;0.30;66.70;;;3.11;54.72;102649.81;4861371;29;20201;-62
2021/12/22 05:00:32;;;;;;;17.40;10.20;;;0.30;67.60;;;3.09;54.29;102654.25;4861350;29;20193;-62
2021/12/22 05:03:01;;;;;;;21.93;10.27;;;0.30;67.70;;;3.11;54.70;102655.03;4860901;29;20232;-63
2021/12/22 05:05:30;;;;;;;15.50;10.20;;;0.20;67.80;;;3.11;54.57;102653.28;4860701;29;20328;-64
2021/12/22 05:07:59;;;;;;;16.40;9.93;;;0.20;68.10;;;3.16;54.42;102651.25;4860781;29;20671;-64
2021/12/22 05:10:28;;;;;;;13.93;9.60;;;0.20;68.10;;;3.20;54.66;102654.53;4860508;29;20278;-64
2021/12/22 05:12:55;;;;;;;18.33;10.30;;;0.20;68.40;;;3.29;55.08;102664.47;4860303;29;20770;-63
2021/12/22 05:15:25;;;;;;;17.53;10.80;;;0.30;68.60;;;3.34;54.75;102662.47;4860573;29;20234;-63
2021/12/22 05:20:25;;;;;;;23.60;9.67;;;0.40;68.60;;;3.39;53.83;102658.72;4860561;29;20273;-61
2021/12/22 05:22:53;;;;;;;21.50;11.10;;;0.40;68.30;;;3.32;53.87;102656.50;4860457;29;20243;-63
2021/12/22 05:25:21;;;;;;;15.70;9.90;;;0.40;67.70;;;3.22;54.55;102653.53;4860161;29;20201;-63
2021/12/22 05:27:48;;;;;;;18.47;10.33;;;0.40;67.60;;;3.15;54.66;102646.13;4860658;29;20701;-65
2021/12/22 05:30:15;;;;;;;25.87;11.87;;;0.30;67.70;;;3.16;54.96;102653.03;4860066;29;20230;-63
2021/12/22 05:32:43;;;;;;;15.30;10.00;;;0.30;67.90;;;3.17;55.01;102644.28;4860025;29;20760;-63
2021/12/22 05:35:12;;;;;;;12.00;8.57;;;0.30;68.10;;;3.18;54.72;102645.97;4860036;29;20195;-63
2021/12/22 05:37:40;;;;;;;31.83;12.30;;;0.30;68.30;;;3.14;54.81;102647.03;4860791;29;20206;-65
2021/12/22 05:40:09;;;;;;;22.43;11.53;;;0.30;67.80;;;3.03;54.50;102641.56;4860167;29;20204;-62
2021/12/22 05:42:37;;;;;;;15.63;10.60;;;0.20;67.70;;;2.87;54.97;102635.47;4860001;29;20230;-63
2021/12/22 05:45:06;;;;;;;16.30;11.37;;;0.20;67.60;;;2.77;55.54;102644.66;4860051;29;20648;-61
2021/12/22 05:47:34;;;;;;;17.03;9.90;;;0.10;68.30;;;2.82;55.84;102637.47;4860544;29;20224;-63
2021/12/22 05:50:06;;;;;;;17.80;12.27;;;0.10;68.90;;;2.86;55.29;102638.97;4862004;29;20305;-64
2021/12/22 05:52:34;;;;;;;25.03;10.90;;;0.10;68.70;;;2.81;55.27;102635.75;4863620;29;20205;-63
2021/12/22 05:55:02;;;;;;;18.77;11.53;;;0.10;68.40;;;2.78;55.74;102635.94;4863917;29;20206;-65
2021/12/22 05:57:31;;;;;;;17.07;10.63;;;0.00;68.60;;;2.84;56.17;102635.63;4864044;29;20197;-63
2021/12/22 05:59:59;;;;;;;18.97;11.70;;;0.00;69.40;;;2.91;56.06;102624.84;4862580;29;20211;-63
2021/12/22 06:02:27;;;;;;;22.97;11.73;;;0.10;69.50;;;2.98;55.55;102627.94;4863963;29;20199;-64
2021/12/22 06:04:55;;;;;;;16.53;10.63;;;0.10;69.50;;;3.03;55.52;102623.34;4863672;29;20236;-63
2021/12/22 06:07:22;;;;;;;14.97;10.40;;;0.10;69.50;;;3.02;55.64;102625.09;4863765;29;20195;-63
2021/12/22 06:09:49;;;;;;;16.57;10.13;;;0.20;69.30;;;3.01;55.57;102622.59;4863791;29;20209;-61
2021/12/22 06:12:17;;;;;;;19.67;11.27;;;0.20;68.90;;;2.94;55.42;102621.25;4864132;29;20614;-65
2021/12/22 06:14:45;;;;;;;21.87;13.13;;;0.20;68.70;;;2.92;56.13;102621.31;4862442;29;20279;-63
2021/12/22 06:17:14;;;;;;;17.57;11.47;;;0.10;69.50;;;3.01;55.98;102623.44;4863637;29;20199;-63
2021/12/22 06:19:41;;;;;;;28.57;13.47;;;0.20;69.60;;;3.06;55.77;102620.59;4859536;29;20227;-64
2021/12/22 06:22:08;;;;;;;20.80;12.40;;;0.20;69.40;;;3.06;55.79;102612.81;4855478;29;20197;-62
2021/12/22 06:24:36;;;;;;;18.10;12.10;;;0.20;69.30;;;3.07;55.90;102617.06;4863093;29;20222;-61
2021/12/22 06:27:04;;;;;;;23.93;12.20;;;0.30;69.50;;;3.15;55.60;102620.13;4863667;29;20196;-61
2021/12/22 06:29:31;;;;;;;23.20;11.57;;;0.30;69.30;;;3.17;55.24;102618.28;4863400;29;20207;-65
2021/12/22 06:32:00;;;;;;;18.70;11.23;;;0.30;69.10;;;3.14;55.56;102616.66;4863388;29;20218;-63
2021/12/22 06:34:28;;;;;;;17.73;11.83;;;0.30;69.00;;;3.11;55.85;102616.00;4862925;29;20793;-64
2021/12/22 06:36:56;;;;;;;25.13;12.47;;;0.20;69.10;;;3.14;55.84;102614.06;4863887;29;20285;-60
2021/12/22 06:39:27;;;;;;;18.87;12.20;;;0.30;69.30;;;3.21;55.96;102614.63;4864847;29;20290;-60
2021/12/22 06:41:54;;;;;;;19.67;11.13;;;0.30;70.50;;;3.23;55.38;102616.19;4863848;29;20541;-63
2021/12/22 06:44:25;;;;;;;18.07;11.00;;;0.30;69.50;;;3.18;55.40;102614.78;4862248;29;20695;-63
2021/12/22 06:46:52;;;;;;;16.50;10.77;;;0.30;69.00;;;3.13;55.32;102617.63;4862805;29;20246;-63
2021/12/22 06:49:23;;;;;;;17.20;10.10;;;0.30;69.10;;;3.06;55.54;102621.44;4864177;29;20284;-62
2021/12/22 06:51:51;;;;;;;17.40;11.40;;;0.30;68.90;;;2.98;55.74;102618.41;4863363;29;20227;-62
2021/12/22 06:54:19;;;;;;;18.00;12.03;;;0.20;69.00;;;2.95;55.98;102612.53;4862716;29;20241;-63
2021/12/22 06:56:47;;;;;;;17.77;11.10;;;0.20;69.10;;;2.96;56.37;102614.19;4863069;29;20270;-60
2021/12/22 06:59:15;;;;;;;18.63;11.90;;;0.20;69.60;;;3.01;56.16;102617.41;4862261;29;20565;-64
2021/12/22 07:01:42;;;;;;;15.87;10.83;;;0.20;70.10;;;3.11;56.18;102623.81;4862702;29;20669;-63
2021/12/22 07:04:10;;;;;;;19.67;11.77;;;0.20;70.00;;;3.22;56.36;102618.88;4862264;29;20232;-63
2021/12/22 07:06:39;;;;;;;19.27;10.80;;;0.30;70.30;;;3.25;55.60;102616.13;4862900;29;20210;-61
2021/12/22 07:09:07;;;;;;;24.17;11.83;;;0.30;69.70;;;3.19;54.95;102626.84;4862862;29;20278;-62
2021/12/22 07:11:37;;;;;;;16.60;10.97;;;0.30;69.10;;;3.04;55.27;102615.50;4850926;29;20245;-62
2021/12/22 07:14:08;;;;;;;15.50;9.80;;;0.30;68.60;;;2.92;55.35;102607.47;4828118;29;20233;-59
2021/12/22 07:16:37;;;;;;;23.20;11.07;;;0.30;68.50;;;2.89;55.90;102612.84;4832850;29;20215;-62
2021/12/22 07:19:05;;;;;;;19.60;11.53;;;0.20;68.90;;;2.90;56.34;102611.94;4834579;29;20735;-62
2021/12/22 07:21:33;;;;;;;18.03;12.17;;;0.20;69.20;;;2.89;56.33;102607.63;4833267;29;20209;-62
2021/12/22 07:24:02;;;;;;;18.87;10.33;;;0.20;69.30;;;2.88;56.12;102611.13;4836463;29;20225;-61
2021/12/22 07:26:30;;;;;;;20.17;11.47;;;0.20;69.40;;;2.81;56.44;102614.97;4836075;29;20206;-63
2021/12/22 07:28:59;;;;;;;16.03;10.93;;;0.10;69.50;;;2.80;56.88;102602.91;4835019;29;20211;-62
2021/12/22 07:31:27;;;;;;;17.07;9.87;;;0.10;69.90;;;2.86;56.78;102612.97;4839951;29;20230;-62
2021/12/22 07:34:06;;;;;;;17.87;11.40;;;0.10;70.10;;;2.90;57.05;102610.13;4832619;29;20940;-64
2021/12/22 07:36:54;;;;;;;18.00;11.60;;;0.10;70.80;;;3.02;56.62;102609.50;4834886;29;20202;-61
2021/12/22 07:39:23;;;;;;;16.17;10.23;;;0.20;70.80;;;3.07;56.50;102611.88;4839038;29;20232;-63
2021/12/22 07:41:51;;;;;;;15.63;10.73;;;0.20;70.30;;;3.10;56.49;102614.31;4830069;29;20826;-64
2021/12/22 07:44:18;;;;;;;15.67;9.63;;;0.20;70.10;;;3.19;56.66;102611.22;4831361;29;20318;-64
2021/12/22 07:46:45;;;;;;;16.97;10.37;;;0.30;70.40;;;3.24;56.26;102615.28;4831834;29;20206;-65
2021/12/22 07:49:13;;;;;;;16.10;10.97;;;0.30;70.40;;;3.31;56.37;102613.19;4838670;29;20537;-62
2021/12/22 07:51:40;;;;;;;17.47;10.80;;;0.40;70.50;;;3.33;56.11;102621.75;4861734;29;20239;-63
2021/12/22 07:54:08;;;;;;;17.77;11.60;;;0.50;69.90;;;3.35;56.16;102625.13;4861375;29;20563;-63
2021/12/22 07:56:37;;;;;;;19.33;10.90;;;0.50;69.90;;;3.38;56.05;102622.34;4860421;29;20214;-62
2021/12/22 07:59:05;;;;;;;16.63;10.90;;;0.50;69.70;;;3.40;56.09;102623.94;4851618;29;20214;-63
2021/12/22 08:01:33;;;;;;;15.73;10.30;;;0.50;69.60;;;3.42;55.41;102626.47;4854759;29;20277;-62
2021/12/22 08:04:01;;;;;;;16.07;10.73;;;0.50;69.30;;;3.41;55.27;102616.97;4853929;29;20569;-62
2021/12/22 08:06:28;;;;;;;14.73;10.30;;;0.50;69.90;;;3.35;55.43;102620.75;4845954;29;20233;-63
2021/12/22 08:08:56;;;;;;;16.07;9.67;;;0.50;69.00;;;3.30;55.20;102625.34;4848637;29;20491;-63
2021/12/22 08:11:23;;;;;;;16.23;10.10;;;0.50;68.90;;;3.21;55.33;102625.03;4859574;29;20642;-62
2021/12/22 08:13:52;;;;;;;17.37;11.43;;;0.50;68.80;;;3.20;56.13;102618.97;4850502;29;20302;-63
2021/12/22 08:16:20;;;;;;;19.30;11.93;;;0.40;69.10;;;3.24;56.19;102619.63;4846669;29;20201;-62
2021/12/22 08:18:47;;;;;;;18.50;10.93;;;0.40;69.60;;;3.28;55.88;102614.19;4848601;29;20277;-60
2021/12/22 08:21:15;;;;;;;19.17;11.77;;;0.40;69.50;;;3.29;55.61;102615.03;4841971;29;20253;-62
2021/12/22 08:23:43;;;;;;;19.87;12.07;;;0.50;69.60;;;3.38;56.35;102609.34;4830258;29;20226;-62
2021/12/22 08:26:10;;;;;;;16.20;10.70;;;0.50;70.20;;;3.51;55.40;102615.56;4833420;29;20207;-61
2021/12/22 08:28:38;;;;;;;16.50;10.80;;;0.60;70.00;;;3.55;55.55;102614.47;4833248;29;20724;-61
2021/12/22 08:31:07;;;;;;;15.07;9.73;;;0.60;69.50;;;3.48;55.38;102610.53;4832847;29;20660;-61
2021/12/22 08:33:42;;;;;;;20.27;11.87;;;0.60;68.90;;;3.50;55.65;102610.44;4830497;29;20266;-61
2021/12/22 08:39:00;;;;;;;20.57;11.97;;;0.70;69.20;;;3.63;55.53;102606.25;4830536;29;20691;-66
2021/12/22 08:41:31;;;;;;;16.83;11.47;;;0.70;69.30;;;3.70;55.31;102603.25;4833744;29;20209;-61
2021/12/22 08:44:03;;;;;;;17.70;10.67;;;0.80;69.00;;;3.74;54.82;102607.34;4830474;29;20292;-61
2021/12/22 08:46:34;;;;;;;17.38;13.90;;;0.80;68.80;;;4.25;54.87;102597.53;4829940;29;20463;-64
2021/12/22 08:49:05;;;;;;;19.37;11.27;;;0.90;69.60;;;4.19;54.67;102603.94;4835347;29;20231;-64
2021/12/22 08:51:34;;;;;;;16.27;10.77;;;1.00;69.40;;;4.16;54.47;102606.69;4834583;29;20280;-67
2021/12/22 08:54:02;;;;;;;16.00;11.07;;;1.00;68.80;;;4.11;53.88;102595.72;4834893;29;20224;-65
2021/12/22 08:56:31;;;;;;;19.27;12.00;;;1.10;69.10;;;4.05;53.56;102603.88;4834836;29;20238;-66
2021/12/22 08:58:59;;;;;;;17.90;11.77;;;1.00;67.80;;;3.93;54.42;102604.56;4830690;29;21538;-65
2021/12/22 09:01:27;;;;;;;17.37;11.50;;;1.00;67.60;;;3.91;54.37;102602.06;4827589;29;20259;-66
2021/12/22 09:03:56;;;;;;;18.90;12.17;;;1.00;68.40;;;3.96;54.16;102612.22;4829143;29;20544;-67
2021/12/22 09:06:24;;;;;;;18.40;11.77;;;1.00;68.30;;;3.95;54.05;102607.91;4827785;29;20337;-62
2021/12/22 09:08:52;;;;;;;20.07;12.30;;;1.00;68.00;;;3.98;54.44;102616.41;4825409;29;20206;-65
2021/12/22 09:11:21;;;;;;;21.53;13.33;;;1.10;68.20;;;3.97;54.25;102622.53;4827815;29;20257;-68
2021/12/22 09:13:49;;;;;;;22.97;12.80;;;1.10;68.10;;;3.95;54.15;102623.53;4829109;29;22444;-65
2021/12/22 09:16:17;;;;;;;14.83;10.40;;;1.00;67.80;;;3.94;53.96;102617.50;4830569;29;20569;-64
2021/12/22 09:18:44;;;;;;;22.97;13.27;;;1.10;67.90;;;4.02;55.11;102612.69;4827995;29;20216;-65
2021/12/22 09:21:16;;;;;;;21.23;12.53;;;1.10;68.50;;;4.12;54.06;102615.63;4829942;29;20217;-65
2021/12/22 09:23:43;;;;;;;25.13;14.90;;;1.10;68.60;;;4.16;54.49;102616.31;4831930;29;20706;-63
2021/12/22 09:26:11;;;;;;;20.83;13.10;;;1.20;68.40;;;4.21;54.30;102619.50;4832380;29;20223;-64
2021/12/22 09:28:38;;;;;;;22.80;14.83;;;1.20;68.20;;;4.25;53.71;102618.38;4831246;29;20214;-65
2021/12/22 09:31:09;;;;;;;22.00;13.83;;;1.20;68.10;;;4.31;53.64;102625.84;4834916;29;20210;-65
2021/12/22 09:33:38;;;;;;;18.53;11.27;;;1.30;68.20;;;4.35;54.34;102614.34;4833776;29;20225;-65
2021/12/22 09:36:10;;;;;;;21.07;13.47;;;1.30;68.10;;;4.34;53.66;102612.63;4831983;29;20220;-66
2021/12/22 09:38:39;;;;;;;24.67;16.10;;;1.30;67.50;;;4.42;53.67;102610.44;4829128;29;21051;-65
2021/12/22 09:41:08;;;;;;;21.73;13.90;;;1.40;68.00;;;4.48;54.25;102613.53;4833271;29;20208;-67
2021/12/22 09:43:36;;;;;;;18.80;13.33;;;1.40;67.80;;;4.54;53.60;102612.34;4829615;29;20329;-64
2021/12/22 09:46:06;;;;;;;18.50;12.80;;;1.50;67.70;;;4.59;53.49;102616.34;4833934;29;20286;-66
2021/12/22 09:53:36;;;;;;;22.63;13.97;;;1.60;66.70;;;4.43;52.85;102620.78;4833217;29;21997;-63
2021/12/22 09:56:07;;;;;;;20.37;12.80;;;1.60;66.60;;;4.32;53.40;102624.91;4833033;29;20242;-66
2021/12/22 09:58:38;;;;;;;25.70;13.27;;;1.50;66.10;;;4.24;53.03;102614.09;4842268;29;20221;-66
2021/12/22 10:01:06;;;;;;;21.83;14.33;;;1.50;66.40;;;4.09;53.44;102614.03;4834731;29;20240;-64
2021/12/22 10:03:34;;;;;;;20.07;13.10;;;1.40;66.30;;;4.03;54.67;102611.78;4835216;29;20218;-67
2021/12/22 10:06:02;;;;;;;56.77;32.37;;;1.30;66.60;;;4.02;54.02;102601.44;4836946;29;20215;-66
2021/12/22 10:08:30;;;;;;;22.13;15.10;;;1.30;67.10;;;4.03;54.31;102606.56;4833758;29;20284;-64
2021/12/22 10:11:08;;;;;;;20.67;13.50;;;1.30;67.70;;;4.15;54.73;102604.19;4836761;29;20202;-66
2021/12/22 10:13:44;;;;;;;21.47;13.13;;;1.30;68.10;;;4.31;54.52;102599.78;4833092;29;20232;-65
2021/12/22 10:16:15;;;;;;;24.50;16.13;;;1.40;68.30;;;4.44;53.88;102603.38;4834079;29;20217;-65
2021/12/22 10:18:44;;;;;;;25.47;15.13;;;1.40;68.30;;;4.52;53.62;102603.75;4850772;29;20248;-65
2021/12/22 10:21:18;;;;;;;21.87;13.60;;;1.50;68.30;;;4.49;53.98;102614.38;4860211;29;20189;-65
2021/12/22 10:23:48;;;;;;;25.87;15.97;;;1.60;67.80;;;4.55;54.38;102603.56;4859903;29;20261;-63
2021/12/22 10:26:21;;;;;;;34.83;20.47;;;1.60;68.30;;;4.72;54.53;102598.22;4856844;29;20298;-62
2021/12/22 10:28:54;;;;;;;22.90;13.93;;;1.60;68.80;;;4.81;53.73;102595.06;4845645;29;20205;-64
2021/12/22 10:31:33;;;;;;;21.33;14.23;;;1.80;68.00;;;4.82;53.71;102599.34;4841679;29;20237;-64
2021/12/22 10:34:06;;;;;;;21.43;13.13;;;1.80;67.60;;;4.85;53.83;102601.75;4828415;29;20228;-64
2021/12/22 10:36:44;;;;;;;19.43;13.13;;;1.90;67.50;;;4.94;53.48;102603.84;4833125;29;20209;-65
2021/12/22 10:39:21;;;;;;;23.03;15.00;;;1.90;67.40;;;4.98;52.92;102594.88;4848221;29;20313;-65
2021/12/22 10:41:51;;;;;;;23.70;14.00;;;1.90;67.30;;;4.99;53.06;102596.53;4862368;29;20224;-65
2021/12/22 10:44:20;;;;;;;22.07;13.90;;;2.00;67.10;;;5.08;53.01;102598.63;4849683;29;20557;-65